Ann Arbor, MI

4:00 AM EST on March 04, 2015 (GMT -0500)
Stonebridge | Change Station
CLOSE
Current Station
Personal Weather Station
Location: Ann Arbor, MI
Elevation: 830 ft
Nearby Weather Stations

Elev 830 ft 42.22 °N, 83.76 °W | Updated 7 minutes ago

Overcast
Overcast
30.1 °F
Feels Like 30 °F
N
0.0
Wind Variable Wind from North

Today
High -- | Low -- °F
--% Chance of Precip.
Yesterday
High -- | Low -- °F
Precip. -- in
7:05 AM 6:28 PM
Waxing Gibbous, 98% visible
Pressure 29.85 in
Visibility 10.0 miles
Clouds Overcast 2100 ft
Windchill 30 °F
Dew Point 23 °F
Humidity 75%
Rainfall 0.00 in
Snow Depth Not available.
UV 0.0 out of 12
Pollen 1.50 out of 12
Air Quality Not available.
Flu Activity Not available.
METAR KARB 040853Z AUTO 30007KT 10SM OVC021 M01/M05 A2983 RMK AO2 SLP108 T10061050 51014

More Conditions Fewer Conditions

Pressure 29.85 in
Visibility 10.0 miles
Clouds Overcast 2100 ft
Windchill 30 °F
Dew Point 23 °F
Humidity 75%
Rainfall 0.00 in
Snow Depth Not available.
UV 0.0 out of 12
Pollen 1.50 out of 12
Air Quality Not available.
Flu Activity Not available.
METAR KARB 040853Z AUTO 30007KT 10SM OVC021 M01/M05 A2983 RMK AO2 SLP108 T10061050 51014

More Conditions Fewer Conditions

10-Day Weather Forecast

Almanac

Astronomy

Mar. 04, 2015 Rise Set
Actual Time
Civil Twilight
Nautical Twilight
Astronomical Twilight
Moon
Length of Visible Light
Length of Day
Tomorrow will be .
, % of the Moon is Illuminated

Today's Extremes

State Highs State Lows

Community

WunderPhotos

Upload Photos

1,802,418 photos uploaded!

WunderBlogs® & News

Nearby

Air Quality

  Air Quality AQ Index Pollutant
Not available.

Snow Depth

Station Depth Elevation

Earthquake Activity

City Distance Mag. Time & Date
Minimum magnitude displayed is 2.5.

Coastal Water Temperatures

Place Temperature

Nearby Weather Stations